sensor_id;sensor_type;location;lat;lon;timestamp;P1;durP1;ratioP1;P2;durP2;ratioP2
59734;SDS011;64362;45.620;4.920;2022-11-15T00:01:49;7.65;;;4.57;;
59734;SDS011;64362;45.620;4.920;2022-11-15T00:04:33;7.30;;;4.78;;
59734;SDS011;64362;45.620;4.920;2022-11-15T00:07:17;10.52;;;4.65;;
59734;SDS011;64362;45.620;4.920;2022-11-15T00:10:01;7.40;;;4.30;;
59734;SDS011;64362;45.620;4.920;2022-11-15T00:12:46;12.65;;;4.78;;
59734;SDS011;64362;45.620;4.920;2022-11-15T00:15:30;7.63;;;4.28;;
59734;SDS011;64362;45.620;4.920;2022-11-15T00:18:14;9.13;;;4.88;;
59734;SDS011;64362;45.620;4.920;2022-11-15T00:21:03;7.35;;;4.20;;
59734;SDS011;64362;45.620;4.920;2022-11-15T00:23:49;6.72;;;4.15;;
59734;SDS011;64362;45.620;4.920;2022-11-15T00:26:32;7.20;;;4.25;;
59734;SDS011;64362;45.620;4.920;2022-11-15T00:29:17;7.28;;;4.22;;
59734;SDS011;64362;45.620;4.920;2022-11-15T00:32:00;7.53;;;4.47;;
59734;SDS011;64362;45.620;4.920;2022-11-15T00:34:45;6.68;;;4.07;;
59734;SDS011;64362;45.620;4.920;2022-11-15T00:37:29;6.22;;;4.38;;
59734;SDS011;64362;45.620;4.920;2022-11-15T00:40:13;7.00;;;4.55;;
59734;SDS011;64362;45.620;4.920;2022-11-15T00:42:58;7.45;;;4.35;;
59734;SDS011;64362;45.620;4.920;2022-11-15T00:45:42;7.85;;;4.30;;
59734;SDS011;64362;45.620;4.920;2022-11-15T00:48:26;7.03;;;4.65;;
59734;SDS011;64362;45.620;4.920;2022-11-15T00:51:10;5.43;;;4.10;;
59734;SDS011;64362;45.620;4.920;2022-11-15T00:53:54;6.47;;;4.28;;
59734;SDS011;64362;45.620;4.920;2022-11-15T00:56:38;6.03;;;4.32;;
59734;SDS011;64362;45.620;4.920;2022-11-15T00:59:22;5.95;;;4.28;;
59734;SDS011;64362;45.620;4.920;2022-11-15T01:02:06;9.18;;;4.60;;
59734;SDS011;64362;45.620;4.920;2022-11-15T01:04:50;5.90;;;4.13;;
59734;SDS011;64362;45.620;4.920;2022-11-15T01:07:34;7.10;;;4.05;;
59734;SDS011;64362;45.620;4.920;2022-11-15T01:10:18;6.13;;;3.92;;
59734;SDS011;64362;45.620;4.920;2022-11-15T01:13:02;6.63;;;4.22;;
59734;SDS011;64362;45.620;4.920;2022-11-15T01:15:46;6.70;;;4.47;;
59734;SDS011;64362;45.620;4.920;2022-11-15T01:18:30;7.45;;;4.15;;
59734;SDS011;64362;45.620;4.920;2022-11-15T01:21:15;7.70;;;3.97;;
59734;SDS011;64362;45.620;4.920;2022-11-15T01:24:01;6.40;;;4.18;;
59734;SDS011;64362;45.620;4.920;2022-11-15T01:26:45;6.57;;;4.20;;
59734;SDS011;64362;45.620;4.920;2022-11-15T01:29:29;6.18;;;4.07;;
59734;SDS011;64362;45.620;4.920;2022-11-15T01:32:13;5.30;;;4.07;;
59734;SDS011;64362;45.620;4.920;2022-11-15T01:34:57;4.95;;;3.72;;
59734;SDS011;64362;45.620;4.920;2022-11-15T01:37:41;7.10;;;4.55;;
59734;SDS011;64362;45.620;4.920;2022-11-15T01:40:25;7.50;;;4.32;;
59734;SDS011;64362;45.620;4.920;2022-11-15T01:43:22;6.07;;;4.05;;
59734;SDS011;64362;45.620;4.920;2022-11-15T01:49:04;6.82;;;4.40;;
59734;SDS011;64362;45.620;4.920;2022-11-15T01:51:54;6.40;;;4.00;;
59734;SDS011;64362;45.620;4.920;2022-11-15T01:54:38;5.88;;;3.80;;
59734;SDS011;64362;45.620;4.920;2022-11-15T01:57:22;5.53;;;3.97;;
59734;SDS011;64362;45.620;4.920;2022-11-15T02:00:06;5.90;;;4.32;;
59734;SDS011;64362;45.620;4.920;2022-11-15T02:02:50;5.32;;;3.88;;
59734;SDS011;64362;45.620;4.920;2022-11-15T02:05:34;5.43;;;3.97;;
59734;SDS011;64362;45.620;4.920;2022-11-15T02:08:20;6.35;;;4.80;;
59734;SDS011;64362;45.620;4.920;2022-11-15T02:11:07;5.60;;;4.07;;
59734;SDS011;64362;45.620;4.920;2022-11-15T02:13:51;5.53;;;3.95;;
59734;SDS011;64362;45.620;4.920;2022-11-15T02:16:51;6.22;;;4.00;;
59734;SDS011;64362;45.620;4.920;2022-11-15T02:22:53;6.07;;;4.20;;
59734;SDS011;64362;45.620;4.920;2022-11-15T02:28:59;4.63;;;3.70;;
59734;SDS011;64362;45.620;4.920;2022-11-15T02:31:50;6.05;;;3.80;;
59734;SDS011;64362;45.620;4.920;2022-11-15T02:40:33;5.78;;;3.67;;
59734;SDS011;64362;45.620;4.920;2022-11-15T02:43:33;4.97;;;3.65;;
59734;SDS011;64362;45.620;4.920;2022-11-15T02:49:48;5.63;;;3.67;;
59734;SDS011;64362;45.620;4.920;2022-11-15T02:52:34;6.10;;;3.55;;
59734;SDS011;64362;45.620;4.920;2022-11-15T02:55:38;5.88;;;3.92;;
59734;SDS011;64362;45.620;4.920;2022-11-15T03:07:41;5.70;;;3.85;;
59734;SDS011;64362;45.620;4.920;2022-11-15T03:10:37;4.90;;;3.85;;
59734;SDS011;64362;45.620;4.920;2022-11-15T03:13:27;6.28;;;3.90;;
59734;SDS011;64362;45.620;4.920;2022-11-15T03:21:56;5.03;;;3.53;;
59734;SDS011;64362;45.620;4.920;2022-11-15T03:24:43;4.25;;;3.65;;
59734;SDS011;64362;45.620;4.920;2022-11-15T03:27:31;5.07;;;3.95;;
59734;SDS011;64362;45.620;4.920;2022-11-15T03:30:19;4.60;;;3.42;;
59734;SDS011;64362;45.620;4.920;2022-11-15T03:33:03;4.80;;;3.45;;
59734;SDS011;64362;45.620;4.920;2022-11-15T03:35:48;5.20;;;3.63;;
59734;SDS011;64362;45.620;4.920;2022-11-15T03:38:32;4.00;;;3.10;;
59734;SDS011;64362;45.620;4.920;2022-11-15T03:47:20;4.07;;;3.22;;
59734;SDS011;64362;45.620;4.920;2022-11-15T03:50:08;5.65;;;3.75;;
59734;SDS011;64362;45.620;4.920;2022-11-15T03:52:55;4.97;;;3.40;;
59734;SDS011;64362;45.620;4.920;2022-11-15T03:55:39;4.20;;;3.33;;
59734;SDS011;64362;45.620;4.920;2022-11-15T03:58:23;4.43;;;3.40;;
59734;SDS011;64362;45.620;4.920;2022-11-15T04:01:07;5.20;;;3.78;;
59734;SDS011;64362;45.620;4.920;2022-11-15T04:03:51;5.97;;;3.70;;
59734;SDS011;64362;45.620;4.920;2022-11-15T04:06:35;4.10;;;3.28;;
59734;SDS011;64362;45.620;4.920;2022-11-15T04:09:19;4.05;;;3.00;;
59734;SDS011;64362;45.620;4.920;2022-11-15T04:12:03;5.55;;;3.70;;
59734;SDS011;64362;45.620;4.920;2022-11-15T04:14:48;4.85;;;3.22;;
59734;SDS011;64362;45.620;4.920;2022-11-15T04:17:54;4.10;;;3.30;;
59734;SDS011;64362;45.620;4.920;2022-11-15T04:20:39;4.55;;;3.30;;
59734;SDS011;64362;45.620;4.920;2022-11-15T04:23:42;4.50;;;3.30;;
59734;SDS011;64362;45.620;4.920;2022-11-15T04:29:22;4.63;;;3.25;;
59734;SDS011;64362;45.620;4.920;2022-11-15T04:32:18;4.55;;;3.28;;
59734;SDS011;64362;45.620;4.920;2022-11-15T04:35:03;5.35;;;3.40;;
59734;SDS011;64362;45.620;4.920;2022-11-15T04:37:47;4.05;;;3.22;;
59734;SDS011;64362;45.620;4.920;2022-11-15T04:40:31;4.55;;;3.35;;
59734;SDS011;64362;45.620;4.920;2022-11-15T04:43:15;4.15;;;3.45;;
59734;SDS011;64362;45.620;4.920;2022-11-15T04:45:59;6.03;;;3.70;;
59734;SDS011;64362;45.620;4.920;2022-11-15T04:48:43;5.47;;;3.67;;
59734;SDS011;64362;45.620;4.920;2022-11-15T04:51:27;4.32;;;3.42;;
59734;SDS011;64362;45.620;4.920;2022-11-15T04:54:11;4.28;;;3.40;;
59734;SDS011;64362;45.620;4.920;2022-11-15T04:56:55;4.80;;;3.42;;
59734;SDS011;64362;45.620;4.920;2022-11-15T04:59:39;4.28;;;3.35;;
59734;SDS011;64362;45.620;4.920;2022-11-15T05:02:23;5.38;;;3.78;;
59734;SDS011;64362;45.620;4.920;2022-11-15T05:05:07;4.97;;;2.97;;
59734;SDS011;64362;45.620;4.920;2022-11-15T05:07:51;4.50;;;3.60;;
59734;SDS011;64362;45.620;4.920;2022-11-15T05:10:35;5.22;;;3.70;;
59734;SDS011;64362;45.620;4.920;2022-11-15T05:13:19;3.88;;;3.20;;
59734;SDS011;64362;45.620;4.920;2022-11-15T05:16:04;4.32;;;3.28;;
59734;SDS011;64362;45.620;4.920;2022-11-15T05:18:51;4.45;;;3.38;;
59734;SDS011;64362;45.620;4.920;2022-11-15T05:21:37;4.50;;;3.00;;
59734;SDS011;64362;45.620;4.920;2022-11-15T05:24:21;4.60;;;3.17;;
59734;SDS011;64362;45.620;4.920;2022-11-15T05:27:05;5.18;;;3.13;;
59734;SDS011;64362;45.620;4.920;2022-11-15T05:29:49;3.40;;;2.88;;
59734;SDS011;64362;45.620;4.920;2022-11-15T05:32:33;3.92;;;3.08;;
59734;SDS011;64362;45.620;4.920;2022-11-15T05:35:25;4.70;;;2.90;;
59734;SDS011;64362;45.620;4.920;2022-11-15T05:38:15;4.40;;;3.20;;
59734;SDS011;64362;45.620;4.920;2022-11-15T05:41:02;4.03;;;3.30;;
59734;SDS011;64362;45.620;4.920;2022-11-15T05:43:46;4.32;;;3.33;;
59734;SDS011;64362;45.620;4.920;2022-11-15T05:46:33;4.35;;;3.47;;
59734;SDS011;64362;45.620;4.920;2022-11-15T05:49:18;4.00;;;2.80;;
59734;SDS011;64362;45.620;4.920;2022-11-15T05:52:03;4.15;;;3.38;;
59734;SDS011;64362;45.620;4.920;2022-11-15T05:54:49;4.07;;;3.22;;
59734;SDS011;64362;45.620;4.920;2022-11-15T05:57:33;4.13;;;3.30;;
59734;SDS011;64362;45.620;4.920;2022-11-15T06:00:17;3.83;;;3.05;;
59734;SDS011;64362;45.620;4.920;2022-11-15T06:03:02;4.85;;;3.20;;
59734;SDS011;64362;45.620;4.920;2022-11-15T06:05:46;4.80;;;3.10;;
59734;SDS011;64362;45.620;4.920;2022-11-15T06:08:30;5.88;;;3.53;;
59734;SDS011;64362;45.620;4.920;2022-11-15T06:11:14;5.43;;;3.17;;
59734;SDS011;64362;45.620;4.920;2022-11-15T06:13:58;5.30;;;3.38;;
59734;SDS011;64362;45.620;4.920;2022-11-15T06:16:43;3.78;;;3.00;;
59734;SDS011;64362;45.620;4.920;2022-11-15T06:19:27;5.82;;;3.15;;
59734;SDS011;64362;45.620;4.920;2022-11-15T06:22:11;4.68;;;3.05;;
59734;SDS011;64362;45.620;4.920;2022-11-15T06:24:55;4.18;;;2.92;;
59734;SDS011;64362;45.620;4.920;2022-11-15T06:27:39;4.70;;;3.10;;
59734;SDS011;64362;45.620;4.920;2022-11-15T06:30:24;5.85;;;3.45;;
59734;SDS011;64362;45.620;4.920;2022-11-15T06:33:08;5.60;;;3.37;;
59734;SDS011;64362;45.620;4.920;2022-11-15T06:35:52;4.93;;;2.95;;
59734;SDS011;64362;45.620;4.920;2022-11-15T06:38:36;6.43;;;3.20;;
59734;SDS011;64362;45.620;4.920;2022-11-15T06:41:20;7.55;;;3.60;;
59734;SDS011;64362;45.620;4.920;2022-11-15T06:44:04;7.28;;;3.00;;
59734;SDS011;64362;45.620;4.920;2022-11-15T06:46:48;5.88;;;3.58;;
59734;SDS011;64362;45.620;4.920;2022-11-15T06:49:32;8.77;;;3.53;;
59734;SDS011;64362;45.620;4.920;2022-11-15T06:52:16;9.52;;;3.50;;
59734;SDS011;64362;45.620;4.920;2022-11-15T06:55:02;6.65;;;3.03;;
59734;SDS011;64362;45.620;4.920;2022-11-15T06:57:48;8.35;;;3.42;;
59734;SDS011;64362;45.620;4.920;2022-11-15T07:00:33;6.10;;;3.50;;
59734;SDS011;64362;45.620;4.920;2022-11-15T07:03:17;7.88;;;3.40;;
59734;SDS011;64362;45.620;4.920;2022-11-15T07:06:01;9.07;;;3.17;;
59734;SDS011;64362;45.620;4.920;2022-11-15T07:08:45;5.30;;;3.17;;
59734;SDS011;64362;45.620;4.920;2022-11-15T07:11:29;8.38;;;3.10;;
59734;SDS011;64362;45.620;4.920;2022-11-15T07:14:13;9.50;;;3.85;;
59734;SDS011;64362;45.620;4.920;2022-11-15T07:16:57;7.53;;;3.20;;
59734;SDS011;64362;45.620;4.920;2022-11-15T07:19:41;4.88;;;3.15;;
59734;SDS011;64362;45.620;4.920;2022-11-15T07:22:24;6.65;;;3.45;;
59734;SDS011;64362;45.620;4.920;2022-11-15T07:25:09;7.05;;;3.20;;
59734;SDS011;64362;45.620;4.920;2022-11-15T07:27:56;7.28;;;3.38;;
59734;SDS011;64362;45.620;4.920;2022-11-15T07:30:41;5.32;;;3.17;;
59734;SDS011;64362;45.620;4.920;2022-11-15T07:33:25;5.35;;;2.92;;
59734;SDS011;64362;45.620;4.920;2022-11-15T07:36:09;9.57;;;3.40;;
59734;SDS011;64362;45.620;4.920;2022-11-15T07:38:53;5.90;;;3.13;;
59734;SDS011;64362;45.620;4.920;2022-11-15T07:41:37;4.78;;;3.08;;
59734;SDS011;64362;45.620;4.920;2022-11-15T07:44:22;9.75;;;3.60;;
59734;SDS011;64362;45.620;4.920;2022-11-15T07:47:06;6.13;;;3.38;;
59734;SDS011;64362;45.620;4.920;2022-11-15T07:49:50;5.43;;;3.08;;
59734;SDS011;64362;45.620;4.920;2022-11-15T07:52:34;5.53;;;3.22;;
59734;SDS011;64362;45.620;4.920;2022-11-15T07:55:18;8.07;;;3.33;;
59734;SDS011;64362;45.620;4.920;2022-11-15T07:58:05;5.78;;;3.00;;
59734;SDS011;64362;45.620;4.920;2022-11-15T08:00:51;5.28;;;3.42;;
59734;SDS011;64362;45.620;4.920;2022-11-15T08:03:35;5.57;;;3.17;;
59734;SDS011;64362;45.620;4.920;2022-11-15T08:06:19;4.03;;;2.80;;
59734;SDS011;64362;45.620;4.920;2022-11-15T08:09:03;6.03;;;3.20;;
59734;SDS011;64362;45.620;4.920;2022-11-15T08:11:47;6.03;;;3.00;;
59734;SDS011;64362;45.620;4.920;2022-11-15T08:14:31;5.97;;;3.15;;
59734;SDS011;64362;45.620;4.920;2022-11-15T08:17:15;6.15;;;2.90;;
59734;SDS011;64362;45.620;4.920;2022-11-15T08:19:59;6.32;;;3.00;;
59734;SDS011;64362;45.620;4.920;2022-11-15T08:22:43;6.03;;;3.00;;
59734;SDS011;64362;45.620;4.920;2022-11-15T08:25:28;4.88;;;3.13;;
59734;SDS011;64362;45.620;4.920;2022-11-15T08:28:13;4.20;;;3.22;;
59734;SDS011;64362;45.620;4.920;2022-11-15T08:30:58;4.95;;;3.17;;
59734;SDS011;64362;45.620;4.920;2022-11-15T08:33:41;3.90;;;2.92;;
59734;SDS011;64362;45.620;4.920;2022-11-15T08:36:26;5.38;;;2.92;;
59734;SDS011;64362;45.620;4.920;2022-11-15T08:39:11;5.07;;;3.30;;
59734;SDS011;64362;45.620;4.920;2022-11-15T08:44:40;3.78;;;2.75;;
59734;SDS011;64362;45.620;4.920;2022-11-15T08:47:24;5.72;;;3.42;;
59734;SDS011;64362;45.620;4.920;2022-11-15T08:50:08;6.05;;;3.30;;
59734;SDS011;64362;45.620;4.920;2022-11-15T08:52:52;3.53;;;2.58;;
59734;SDS011;64362;45.620;4.920;2022-11-15T08:55:36;4.65;;;3.15;;
59734;SDS011;64362;45.620;4.920;2022-11-15T08:58:21;5.43;;;3.00;;
59734;SDS011;64362;45.620;4.920;2022-11-15T09:01:05;5.18;;;2.85;;
59734;SDS011;64362;45.620;4.920;2022-11-15T09:03:49;5.07;;;3.00;;
59734;SDS011;64362;45.620;4.920;2022-11-15T09:06:33;5.40;;;3.15;;
59734;SDS011;64362;45.620;4.920;2022-11-15T09:09:17;4.63;;;3.53;;
59734;SDS011;64362;45.620;4.920;2022-11-15T09:12:01;4.07;;;3.00;;
59734;SDS011;64362;45.620;4.920;2022-11-15T09:14:45;4.07;;;3.22;;
59734;SDS011;64362;45.620;4.920;2022-11-15T09:17:29;4.53;;;2.95;;
59734;SDS011;64362;45.620;4.920;2022-11-15T09:20:13;5.03;;;3.10;;
59734;SDS011;64362;45.620;4.920;2022-11-15T09:23:00;5.38;;;3.28;;
59734;SDS011;64362;45.620;4.920;2022-11-15T09:25:44;4.47;;;2.78;;
59734;SDS011;64362;45.620;4.920;2022-11-15T09:28:29;4.68;;;3.13;;
59734;SDS011;64362;45.620;4.920;2022-11-15T09:31:13;4.77;;;2.90;;
59734;SDS011;64362;45.620;4.920;2022-11-15T09:33:57;4.80;;;2.90;;
59734;SDS011;64362;45.620;4.920;2022-11-15T09:36:41;3.88;;;2.88;;
59734;SDS011;64362;45.620;4.920;2022-11-15T09:39:25;4.40;;;2.80;;
59734;SDS011;64362;45.620;4.920;2022-11-15T09:42:34;4.85;;;3.13;;
59734;SDS011;64362;45.620;4.920;2022-11-15T09:45:35;5.57;;;2.90;;
59734;SDS011;64362;45.620;4.920;2022-11-15T09:51:31;4.18;;;3.13;;
59734;SDS011;64362;45.620;4.920;2022-11-15T09:56:37;4.80;;;3.10;;
59734;SDS011;64362;45.620;4.920;2022-11-15T10:04:47;4.03;;;2.85;;
59734;SDS011;64362;45.620;4.920;2022-11-15T10:07:18;4.72;;;2.97;;
59734;SDS011;64362;45.620;4.920;2022-11-15T10:12:16;3.72;;;2.97;;
59734;SDS011;64362;45.620;4.920;2022-11-15T10:14:42;3.35;;;2.47;;
59734;SDS011;64362;45.620;4.920;2022-11-15T10:19:55;4.50;;;2.67;;
59734;SDS011;64362;45.620;4.920;2022-11-15T10:22:53;5.30;;;3.00;;
59734;SDS011;64362;45.620;4.920;2022-11-15T10:25:24;4.00;;;3.13;;
59734;SDS011;64362;45.620;4.920;2022-11-15T10:27:54;5.90;;;3.22;;
59734;SDS011;64362;45.620;4.920;2022-11-15T10:30:59;4.90;;;2.90;;
59734;SDS011;64362;45.620;4.920;2022-11-15T10:46:37;4.00;;;2.78;;
59734;SDS011;64362;45.620;4.920;2022-11-15T10:52:04;4.10;;;2.80;;
59734;SDS011;64362;45.620;4.920;2022-11-15T10:56:58;4.07;;;2.90;;
59734;SDS011;64362;45.620;4.920;2022-11-15T10:59:28;4.18;;;3.25;;
59734;SDS011;64362;45.620;4.920;2022-11-15T11:01:55;5.97;;;3.05;;
59734;SDS011;64362;45.620;4.920;2022-11-15T11:04:21;6.05;;;2.83;;
59734;SDS011;64362;45.620;4.920;2022-11-15T11:09:37;3.55;;;2.83;;
59734;SDS011;64362;45.620;4.920;2022-11-15T11:12:04;3.97;;;2.50;;
59734;SDS011;64362;45.620;4.920;2022-11-15T11:14:31;3.90;;;2.90;;
59734;SDS011;64362;45.620;4.920;2022-11-15T11:20:10;4.13;;;2.67;;
59734;SDS011;64362;45.620;4.920;2022-11-15T11:30:24;4.32;;;3.10;;
59734;SDS011;64362;45.620;4.920;2022-11-15T11:35:45;3.38;;;2.55;;
59734;SDS011;64362;45.620;4.920;2022-11-15T11:41:04;3.97;;;2.80;;
59734;SDS011;64362;45.620;4.920;2022-11-15T11:49:42;4.10;;;2.88;;
59734;SDS011;64362;45.620;4.920;2022-11-15T11:52:13;3.60;;;2.45;;
59734;SDS011;64362;45.620;4.920;2022-11-15T11:54:50;4.18;;;2.95;;
59734;SDS011;64362;45.620;4.920;2022-11-15T12:00:26;4.20;;;2.67;;
59734;SDS011;64362;45.620;4.920;2022-11-15T12:03:00;6.30;;;2.80;;
59734;SDS011;64362;45.620;4.920;2022-11-15T12:05:41;3.53;;;2.50;;
59734;SDS011;64362;45.620;4.920;2022-11-15T12:08:23;3.90;;;2.80;;
59734;SDS011;64362;45.620;4.920;2022-11-15T12:10:57;4.35;;;2.85;;
59734;SDS011;64362;45.620;4.920;2022-11-15T12:13:35;3.80;;;2.67;;
59734;SDS011;64362;45.620;4.920;2022-11-15T12:16:23;3.58;;;2.45;;
59734;SDS011;64362;45.620;4.920;2022-11-15T12:18:50;4.80;;;3.05;;
59734;SDS011;64362;45.620;4.920;2022-11-15T12:23:53;4.25;;;2.85;;
59734;SDS011;64362;45.620;4.920;2022-11-15T12:26:24;3.35;;;2.67;;
59734;SDS011;64362;45.620;4.920;2022-11-15T12:29:35;4.55;;;2.78;;
59734;SDS011;64362;45.620;4.920;2022-11-15T12:31:47;4.85;;;2.88;;
59734;SDS011;64362;45.620;4.920;2022-11-15T12:36:44;4.95;;;2.90;;
59734;SDS011;64362;45.620;4.920;2022-11-15T12:39:10;4.15;;;2.95;;
59734;SDS011;64362;45.620;4.920;2022-11-15T12:41:37;4.55;;;2.50;;
59734;SDS011;64362;45.620;4.920;2022-11-15T12:44:55;6.03;;;2.47;;
59734;SDS011;64362;45.620;4.920;2022-11-15T12:47:04;3.93;;;2.90;;
59734;SDS011;64362;45.620;4.920;2022-11-15T12:49:47;7.10;;;3.08;;
59734;SDS011;64362;45.620;4.920;2022-11-15T12:52:13;6.35;;;2.63;;
59734;SDS011;64362;45.620;4.920;2022-11-15T13:02:22;4.38;;;2.78;;
59734;SDS011;64362;45.620;4.920;2022-11-15T13:04:49;6.05;;;2.83;;
59734;SDS011;64362;45.620;4.920;2022-11-15T13:09:59;4.47;;;2.95;;
59734;SDS011;64362;45.620;4.920;2022-11-15T13:15:01;8.70;;;2.90;;
59734;SDS011;64362;45.620;4.920;2022-11-15T13:17:54;6.30;;;2.85;;
59734;SDS011;64362;45.620;4.920;2022-11-15T13:20:28;4.88;;;2.90;;
59734;SDS011;64362;45.620;4.920;2022-11-15T13:23:11;5.93;;;2.67;;
59734;SDS011;64362;45.620;4.920;2022-11-15T13:30:51;5.78;;;3.45;;
59734;SDS011;64362;45.620;4.920;2022-11-15T13:35:56;4.60;;;2.80;;
59734;SDS011;64362;45.620;4.920;2022-11-15T13:38:30;4.82;;;2.50;;
59734;SDS011;64362;45.620;4.920;2022-11-15T13:40:58;4.03;;;2.67;;
59734;SDS011;64362;45.620;4.920;2022-11-15T13:48:34;4.35;;;2.58;;
59734;SDS011;64362;45.620;4.920;2022-11-15T13:51:00;4.10;;;2.67;;
59734;SDS011;64362;45.620;4.920;2022-11-15T13:53:27;4.13;;;2.95;;
59734;SDS011;64362;45.620;4.920;2022-11-15T13:55:53;5.93;;;2.58;;
59734;SDS011;64362;45.620;4.920;2022-11-15T13:58:20;3.97;;;2.78;;
59734;SDS011;64362;45.620;4.920;2022-11-15T14:00:46;4.22;;;2.47;;
59734;SDS011;64362;45.620;4.920;2022-11-15T14:06:08;4.18;;;2.67;;
59734;SDS011;64362;45.620;4.920;2022-11-15T14:08:42;4.07;;;2.80;;
59734;SDS011;64362;45.620;4.920;2022-11-15T14:11:23;5.73;;;2.60;;
59734;SDS011;64362;45.620;4.920;2022-11-15T14:16:39;5.30;;;2.33;;
59734;SDS011;64362;45.620;4.920;2022-11-15T14:19:09;3.88;;;2.70;;
59734;SDS011;64362;45.620;4.920;2022-11-15T14:24:37;3.60;;;2.40;;
59734;SDS011;64362;45.620;4.920;2022-11-15T14:27:15;5.40;;;2.75;;
59734;SDS011;64362;45.620;4.920;2022-11-15T14:29:46;3.97;;;2.45;;
59734;SDS011;64362;45.620;4.920;2022-11-15T14:32:58;4.47;;;2.60;;
59734;SDS011;64362;45.620;4.920;2022-11-15T14:35:14;4.18;;;2.97;;
59734;SDS011;64362;45.620;4.920;2022-11-15T14:37:42;5.70;;;2.38;;
59734;SDS011;64362;45.620;4.920;2022-11-15T14:40:08;4.05;;;2.80;;
59734;SDS011;64362;45.620;4.920;2022-11-15T14:42:37;4.57;;;2.60;;
59734;SDS011;64362;45.620;4.920;2022-11-15T14:45:04;6.25;;;2.67;;
59734;SDS011;64362;45.620;4.920;2022-11-15T14:47:36;3.60;;;2.53;;
59734;SDS011;64362;45.620;4.920;2022-11-15T14:50:01;4.15;;;2.65;;
59734;SDS011;64362;45.620;4.920;2022-11-15T14:52:27;4.63;;;3.22;;
59734;SDS011;64362;45.620;4.920;2022-11-15T14:54:55;4.03;;;2.60;;
59734;SDS011;64362;45.620;4.920;2022-11-15T14:57:21;4.43;;;2.85;;
59734;SDS011;64362;45.620;4.920;2022-11-15T14:59:47;4.07;;;2.85;;
59734;SDS011;64362;45.620;4.920;2022-11-15T15:02:22;3.95;;;2.50;;
59734;SDS011;64362;45.620;4.920;2022-11-15T15:04:49;5.03;;;2.90;;
59734;SDS011;64362;45.620;4.920;2022-11-15T15:07:15;4.47;;;2.40;;
59734;SDS011;64362;45.620;4.920;2022-11-15T15:09:41;5.95;;;2.63;;
59734;SDS011;64362;45.620;4.920;2022-11-15T15:12:25;3.20;;;2.42;;
59734;SDS011;64362;45.620;4.920;2022-11-15T15:14:51;4.35;;;2.40;;
59734;SDS011;64362;45.620;4.920;2022-11-15T15:17:17;3.63;;;3.00;;
59734;SDS011;64362;45.620;4.920;2022-11-15T15:19:42;5.35;;;3.03;;
59734;SDS011;64362;45.620;4.920;2022-11-15T15:22:15;4.82;;;2.72;;
59734;SDS011;64362;45.620;4.920;2022-11-15T15:24:42;5.00;;;2.72;;
59734;SDS011;64362;45.620;4.920;2022-11-15T15:27:09;4.50;;;3.22;;
59734;SDS011;64362;45.620;4.920;2022-11-15T15:29:34;4.50;;;2.63;;
59734;SDS011;64362;45.620;4.920;2022-11-15T15:32:00;3.88;;;2.70;;
59734;SDS011;64362;45.620;4.920;2022-11-15T15:34:25;4.25;;;2.65;;
59734;SDS011;64362;45.620;4.920;2022-11-15T15:37:06;4.30;;;2.60;;
59734;SDS011;64362;45.620;4.920;2022-11-15T15:39:32;3.53;;;2.60;;
59734;SDS011;64362;45.620;4.920;2022-11-15T15:41:58;4.03;;;2.67;;
59734;SDS011;64362;45.620;4.920;2022-11-15T15:44:23;5.82;;;3.05;;
59734;SDS011;64362;45.620;4.920;2022-11-15T15:46:49;4.22;;;2.80;;
59734;SDS011;64362;45.620;4.920;2022-11-15T15:49:15;4.30;;;2.92;;
59734;SDS011;64362;45.620;4.920;2022-11-15T15:51:40;4.25;;;2.47;;
59734;SDS011;64362;45.620;4.920;2022-11-15T15:54:05;4.68;;;2.58;;
59734;SDS011;64362;45.620;4.920;2022-11-15T15:56:31;4.72;;;2.78;;
59734;SDS011;64362;45.620;4.920;2022-11-15T15:58:56;3.20;;;2.45;;
59734;SDS011;64362;45.620;4.920;2022-11-15T16:01:22;4.75;;;2.92;;
59734;SDS011;64362;45.620;4.920;2022-11-15T16:03:47;4.18;;;2.85;;
59734;SDS011;64362;45.620;4.920;2022-11-15T16:06:32;4.40;;;2.67;;
59734;SDS011;64362;45.620;4.920;2022-11-15T16:09:00;3.33;;;2.63;;
59734;SDS011;64362;45.620;4.920;2022-11-15T16:11:26;3.50;;;2.38;;
59734;SDS011;64362;45.620;4.920;2022-11-15T16:13:52;4.05;;;2.97;;
59734;SDS011;64362;45.620;4.920;2022-11-15T16:16:18;4.43;;;2.63;;
59734;SDS011;64362;45.620;4.920;2022-11-15T16:18:44;4.60;;;2.63;;
59734;SDS011;64362;45.620;4.920;2022-11-15T16:21:10;8.48;;;2.90;;
59734;SDS011;64362;45.620;4.920;2022-11-15T16:23:35;4.10;;;2.78;;
59734;SDS011;64362;45.620;4.920;2022-11-15T16:26:01;4.03;;;2.85;;
59734;SDS011;64362;45.620;4.920;2022-11-15T16:28:28;4.13;;;2.53;;
59734;SDS011;64362;45.620;4.920;2022-11-15T16:31:13;5.05;;;2.80;;
59734;SDS011;64362;45.620;4.920;2022-11-15T16:33:39;3.55;;;2.40;;
59734;SDS011;64362;45.620;4.920;2022-11-15T16:36:14;3.03;;;2.22;;
59734;SDS011;64362;45.620;4.920;2022-11-15T16:38:40;3.97;;;2.55;;
59734;SDS011;64362;45.620;4.920;2022-11-15T16:41:06;4.63;;;2.70;;
59734;SDS011;64362;45.620;4.920;2022-11-15T16:43:31;3.95;;;2.70;;
59734;SDS011;64362;45.620;4.920;2022-11-15T16:45:57;4.28;;;2.65;;
59734;SDS011;64362;45.620;4.920;2022-11-15T16:48:23;3.88;;;2.40;;
59734;SDS011;64362;45.620;4.920;2022-11-15T16:50:50;3.30;;;2.55;;
59734;SDS011;64362;45.620;4.920;2022-11-15T16:53:19;4.13;;;2.85;;
59734;SDS011;64362;45.620;4.920;2022-11-15T16:55:44;4.60;;;3.03;;
59734;SDS011;64362;45.620;4.920;2022-11-15T16:58:10;4.50;;;2.78;;
59734;SDS011;64362;45.620;4.920;2022-11-15T17:00:35;3.78;;;2.75;;
59734;SDS011;64362;45.620;4.920;2022-11-15T17:03:01;4.05;;;3.20;;
59734;SDS011;64362;45.620;4.920;2022-11-15T17:05:27;5.35;;;2.97;;
59734;SDS011;64362;45.620;4.920;2022-11-15T17:07:53;4.03;;;3.03;;
59734;SDS011;64362;45.620;4.920;2022-11-15T17:10:19;4.85;;;2.92;;
59734;SDS011;64362;45.620;4.920;2022-11-15T17:12:46;10.88;;;3.17;;
59734;SDS011;64362;45.620;4.920;2022-11-15T17:15:12;12.63;;;3.20;;
59734;SDS011;64362;45.620;4.920;2022-11-15T17:17:38;7.10;;;3.47;;
59734;SDS011;64362;45.620;4.920;2022-11-15T17:20:04;15.05;;;3.55;;
59734;SDS011;64362;45.620;4.920;2022-11-15T17:22:34;6.05;;;3.08;;
59734;SDS011;64362;45.620;4.920;2022-11-15T17:25:00;9.65;;;3.28;;
59734;SDS011;64362;45.620;4.920;2022-11-15T17:27:26;11.90;;;3.22;;
59734;SDS011;64362;45.620;4.920;2022-11-15T17:29:51;9.32;;;3.47;;
59734;SDS011;64362;45.620;4.920;2022-11-15T17:32:17;8.52;;;3.25;;
59734;SDS011;64362;45.620;4.920;2022-11-15T17:34:42;8.82;;;3.60;;
59734;SDS011;64362;45.620;4.920;2022-11-15T17:37:08;14.82;;;4.15;;
59734;SDS011;64362;45.620;4.920;2022-11-15T17:39:33;13.23;;;3.72;;
59734;SDS011;64362;45.620;4.920;2022-11-15T17:41:59;11.25;;;3.47;;
59734;SDS011;64362;45.620;4.920;2022-11-15T17:44:24;10.10;;;4.43;;
59734;SDS011;64362;45.620;4.920;2022-11-15T17:46:50;12.05;;;3.72;;
59734;SDS011;64362;45.620;4.920;2022-11-15T17:49:15;9.98;;;3.70;;
59734;SDS011;64362;45.620;4.920;2022-11-15T17:51:42;7.90;;;3.22;;
59734;SDS011;64362;45.620;4.920;2022-11-15T17:54:09;6.40;;;3.80;;
59734;SDS011;64362;45.620;4.920;2022-11-15T17:56:37;9.05;;;4.10;;
59734;SDS011;64362;45.620;4.920;2022-11-15T17:59:04;10.48;;;4.03;;
59734;SDS011;64362;45.620;4.920;2022-11-15T18:01:33;11.05;;;4.00;;
59734;SDS011;64362;45.620;4.920;2022-11-15T18:04:00;6.85;;;3.92;;
59734;SDS011;64362;45.620;4.920;2022-11-15T18:06:27;10.18;;;4.32;;
59734;SDS011;64362;45.620;4.920;2022-11-15T18:08:54;9.90;;;4.13;;
59734;SDS011;64362;45.620;4.920;2022-11-15T18:13:51;9.48;;;4.20;;
59734;SDS011;64362;45.620;4.920;2022-11-15T18:16:19;14.35;;;4.72;;
59734;SDS011;64362;45.620;4.920;2022-11-15T18:18:45;13.60;;;4.70;;
59734;SDS011;64362;45.620;4.920;2022-11-15T18:23:37;10.98;;;4.63;;
59734;SDS011;64362;45.620;4.920;2022-11-15T18:26:04;17.75;;;5.15;;
59734;SDS011;64362;45.620;4.920;2022-11-15T18:28:31;9.63;;;4.70;;